createdAt,value
2023-04-22T00:00:17.601Z,98147.19
2023-04-22T00:03:27.352Z,98147.41
2023-04-22T00:06:33.143Z,98134.50
2023-04-22T00:09:39.783Z,98138.91
2023-04-22T00:12:45.745Z,98139.09
2023-04-22T00:15:52.147Z,98137.72
2023-04-22T00:19:00.487Z,98130.13
2023-04-22T00:22:07.319Z,98130.34
2023-04-22T00:25:13.137Z,98129.69
2023-04-22T00:28:19.711Z,98129.06
2023-04-22T00:31:25.226Z,98135.34
2023-04-22T00:34:34.379Z,98132.00
2023-04-22T00:37:40.021Z,98130.41
2023-04-22T00:40:46.728Z,98126.09
2023-04-22T00:43:53.802Z,98126.28
2023-04-22T00:47:00.966Z,98123.22
2023-04-22T00:50:12.059Z,98127.09
2023-04-22T00:53:18.405Z,98129.16
2023-04-22T00:56:28.654Z,98133.75
2023-04-22T00:59:35.513Z,98133.09
2023-04-22T01:02:42.169Z,98130.59
2023-04-22T01:05:53.137Z,98131.63
2023-04-22T01:09:00.070Z,98131.63
2023-04-22T01:12:06.598Z,98130.16
2023-04-22T01:15:13.185Z,98128.66
2023-04-22T01:18:20.719Z,98129.69
2023-04-22T01:21:33.878Z,98117.25
2023-04-22T01:24:43.802Z,98130.06
2023-04-22T01:27:49.625Z,98134.50
2023-04-22T01:30:56.552Z,98130.16
2023-04-22T01:34:03.245Z,98122.69
2023-04-22T01:37:10.965Z,98121.63
2023-04-22T01:40:22.861Z,98134.75
2023-04-22T01:43:30.992Z,98124.38
2023-04-22T01:46:37.348Z,98130.75
2023-04-22T01:49:45.941Z,98125.72
2023-04-22T01:52:51.786Z,98088.75
2023-04-22T01:56:00.925Z,98125.13
2023-04-22T01:59:06.452Z,98128.66
2023-04-22T02:02:16.150Z,98134.09
2023-04-22T02:05:21.953Z,98132.50
2023-04-22T02:08:28.355Z,98124.19
2023-04-22T02:11:36.677Z,98127.94
2023-04-22T02:14:42.993Z,98127.31
2023-04-22T02:17:48.935Z,98133.53
2023-04-22T02:20:55.308Z,98138.22
2023-04-22T02:24:00.876Z,98136.00
2023-04-22T02:27:10.943Z,98135.34
2023-04-22T02:30:17.025Z,98125.88
2023-04-22T02:33:23.733Z,98123.44
2023-04-22T02:36:32.145Z,98128.13
2023-04-22T02:39:38.936Z,98127.47
2023-04-22T02:42:48.917Z,98121.75
2023-04-22T02:45:55.598Z,98125.69
2023-04-22T02:49:01.364Z,98124.94
2023-04-22T02:52:08.203Z,98126.03
2023-04-22T02:55:13.859Z,98126.22
2023-04-22T02:58:23.222Z,98126.50
2023-04-22T03:01:28.791Z,98123.19
2023-04-22T03:04:39.540Z,98130.16
2023-04-22T03:07:45.189Z,98121.53
2023-04-22T03:10:51.906Z,98128.44
2023-04-22T03:14:00.383Z,98131.16
2023-04-22T03:17:07.265Z,98125.19
2023-04-22T03:20:15.350Z,98127.13
2023-04-22T03:23:22.049Z,98122.91
2023-04-22T03:26:27.595Z,98121.25
2023-04-22T03:29:36.825Z,98126.72
2023-04-22T03:32:42.417Z,98121.88
2023-04-22T03:35:58.363Z,98129.91
2023-04-22T03:39:04.280Z,98128.38
2023-04-22T03:42:15.715Z,98131.28
2023-04-22T03:45:25.539Z,98130.59
2023-04-22T03:48:49.477Z,98129.94
2023-04-22T03:52:04.567Z,98131.72
2023-04-22T03:55:13.375Z,98131.72
2023-04-22T03:58:19.249Z,98130.03
2023-04-22T04:01:29.794Z,98133.59
2023-04-22T04:04:38.897Z,98133.59
2023-04-22T04:07:47.258Z,98143.31
2023-04-22T04:10:52.997Z,98138.25
2023-04-22T04:13:59.427Z,98131.47
2023-04-22T04:17:14.348Z,98140.09
2023-04-22T04:20:21.216Z,98133.94
2023-04-22T04:23:27.442Z,98132.16
2023-04-22T04:26:34.901Z,98141.63
2023-04-22T04:30:05.006Z,98140.69
2023-04-22T04:33:20.327Z,98132.63
2023-04-22T04:36:29.524Z,98142.03
2023-04-22T04:39:46.643Z,98143.53
2023-04-22T04:42:55.924Z,98148.53
2023-04-22T04:46:06.756Z,98152.53
2023-04-22T04:49:17.622Z,98150.50
2023-04-22T04:52:32.711Z,98160.63
2023-04-22T04:55:38.505Z,98157.66
2023-04-22T04:58:51.346Z,98151.28
2023-04-22T05:02:00.903Z,98156.75
2023-04-22T05:05:13.644Z,98149.09
2023-04-22T05:08:21.262Z,98147.50
2023-04-22T05:11:29.602Z,98143.69
2023-04-22T05:14:36.864Z,98149.31
2023-04-22T05:17:43.573Z,98147.44
2023-04-22T05:20:52.331Z,98149.09
2023-04-22T05:24:01.780Z,98144.63
2023-04-22T05:27:08.403Z,98145.44
2023-04-22T05:30:15.771Z,98144.66
2023-04-22T05:33:21.312Z,98143.03
2023-04-22T05:36:32.181Z,98153.47
2023-04-22T05:39:38.751Z,98153.44
2023-04-22T05:42:48.724Z,98154.53
2023-04-22T05:45:54.575Z,98152.22
2023-04-22T05:49:01.600Z,98148.78
2023-04-22T05:53:03.136Z,98147.03
2023-04-22T05:56:09.973Z,98143.72
2023-04-22T05:59:16.286Z,98147.31
2023-04-22T06:02:23.177Z,98155.28
2023-04-22T06:05:28.971Z,98147.72
2023-04-22T06:08:39.821Z,98162.69
2023-04-22T06:11:45.532Z,98157.72
2023-04-22T06:14:51.877Z,98159.72
2023-04-22T06:17:57.508Z,98159.16
2023-04-22T06:21:03.852Z,98166.22
2023-04-22T06:24:12.473Z,98159.25
2023-04-22T06:27:21.874Z,98159.53
2023-04-22T06:30:27.822Z,98155.84
2023-04-22T06:33:35.172Z,98154.84
2023-04-22T06:36:40.986Z,98159.13
2023-04-22T06:39:50.204Z,98159.66
2023-04-22T06:43:39.510Z,98159.25
2023-04-22T06:46:46.268Z,98167.94
2023-04-22T06:50:12.914Z,98140.38
2023-04-22T06:53:52.793Z,98162.78
2023-04-22T06:57:01.901Z,98151.41
2023-04-22T07:00:15.551Z,98155.16
2023-04-22T07:03:41.084Z,98153.13
2023-04-22T07:06:50.648Z,98151.28
2023-04-22T07:09:56.292Z,98153.47
2023-04-22T07:13:09.333Z,98152.38
2023-04-22T07:16:14.893Z,98157.41
2023-04-22T07:19:21.252Z,98158.94
2023-04-22T07:22:26.748Z,98153.44
2023-04-22T07:25:33.150Z,98157.72
2023-04-22T07:28:41.474Z,98153.38
2023-04-22T07:31:47.971Z,98155.00
2023-04-22T07:34:53.472Z,98150.53
2023-04-22T07:37:59.913Z,98159.38
2023-04-22T07:41:05.401Z,98160.16
2023-04-22T07:44:18.766Z,98154.94
2023-04-22T07:47:24.356Z,98155.03
2023-04-22T07:50:31.022Z,98150.63
2023-04-22T07:53:36.765Z,98154.31
2023-04-22T07:56:43.054Z,98163.03
2023-04-22T07:59:51.387Z,98154.19
2023-04-22T08:02:57.887Z,98156.16
2023-04-22T08:06:03.510Z,98153.97
2023-04-22T08:09:10.820Z,98153.13
2023-04-22T08:12:16.507Z,98154.56
2023-04-22T08:15:25.877Z,98161.28
2023-04-22T08:18:31.396Z,98156.13
2023-04-22T08:21:37.735Z,98158.25
2023-04-22T08:24:43.247Z,98156.78
2023-04-22T08:27:49.548Z,98160.13
2023-04-22T08:30:57.854Z,98157.22
2023-04-22T08:34:04.442Z,98120.84
2023-04-22T08:37:10.166Z,98156.38
2023-04-22T08:40:16.853Z,98151.91
2023-04-22T08:43:23.605Z,98142.72
2023-04-22T08:46:34.904Z,98139.41
2023-04-22T08:49:41.619Z,98152.09
2023-04-22T08:52:48.410Z,98151.25
2023-04-22T08:55:55.340Z,98142.03
2023-04-22T08:59:02.165Z,98149.16
2023-04-22T09:02:16.904Z,98142.47
2023-04-22T09:05:28.368Z,98137.44
2023-04-22T09:08:34.545Z,98137.59
2023-04-22T09:11:41.630Z,98134.66
2023-04-22T09:14:48.682Z,98136.63
2023-04-22T09:17:58.834Z,98135.63
2023-04-22T09:21:04.751Z,98131.19
2023-04-22T09:24:14.134Z,98130.22
2023-04-22T09:27:21.387Z,98133.56
2023-04-22T09:30:30.790Z,98118.75
2023-04-22T09:33:42.655Z,98121.28
2023-04-22T09:36:49.602Z,98116.81
2023-04-22T09:39:56.481Z,98116.53
2023-04-22T09:43:06.847Z,98115.72
2023-04-22T09:46:13.651Z,98108.16
2023-04-22T09:49:24.959Z,98107.84
2023-04-22T09:52:30.382Z,98117.06
2023-04-22T09:55:41.723Z,98105.03
2023-04-22T09:58:47.135Z,98102.78
2023-04-22T10:01:56.618Z,98089.91
2023-04-22T10:05:05.077Z,98100.13
2023-04-22T10:08:13.670Z,98092.56
2023-04-22T10:11:19.203Z,98094.38
2023-04-22T10:14:26.448Z,98086.13
2023-04-22T10:17:36.485Z,98095.47
2023-04-22T10:20:49.019Z,98093.19
2023-04-22T10:23:54.888Z,98082.28
2023-04-22T10:27:06.792Z,98081.16
2023-04-22T10:30:15.025Z,98068.03
2023-04-22T10:33:45.011Z,98064.25
2023-04-22T10:37:03.597Z,98064.09
2023-04-22T10:40:19.128Z,98059.75
2023-04-22T10:43:45.291Z,98057.63
2023-04-22T10:47:04.598Z,98054.53
2023-04-22T10:50:21.899Z,98056.34
2023-04-22T10:53:44.229Z,98052.78
2023-04-22T10:57:05.289Z,98048.19
2023-04-22T11:00:53.071Z,98061.69
2023-04-22T11:04:23.797Z,98059.59
2023-04-22T11:07:35.971Z,98053.56
2023-04-22T11:10:48.234Z,98042.63
2023-04-22T11:13:55.856Z,98043.88
2023-04-22T11:17:01.408Z,98038.09
2023-04-22T11:20:11.165Z,98032.09
2023-04-22T11:23:22.952Z,98021.63
2023-04-22T11:26:41.248Z,98020.56
2023-04-22T11:29:46.676Z,98013.63
2023-04-22T11:32:55.610Z,98016.69
2023-04-22T11:36:01.266Z,98017.44
2023-04-22T11:39:15.344Z,98017.97
2023-04-22T11:42:26.794Z,98021.84
2023-04-22T11:45:35.282Z,98023.88
2023-04-22T11:48:40.822Z,98011.97
2023-04-22T11:52:00.402Z,98020.66
2023-04-22T11:55:06.333Z,98014.34
2023-04-22T11:58:18.732Z,98007.03
2023-04-22T12:01:24.157Z,98001.84
2023-04-22T12:04:30.421Z,98001.41
2023-04-22T12:07:36.301Z,97997.25
2023-04-22T12:10:46.235Z,98003.00
2023-04-22T12:13:54.640Z,98007.53
2023-04-22T12:17:00.949Z,98002.72
2023-04-22T12:20:08.365Z,97992.91
2023-04-22T12:23:18.917Z,97997.91
2023-04-22T12:26:27.968Z,97991.56
2023-04-22T12:29:37.850Z,97998.28
2023-04-22T12:32:43.411Z,97989.31
2023-04-22T12:35:52.825Z,97984.84
2023-04-22T12:38:58.308Z,97990.03
2023-04-22T12:42:06.083Z,97992.03
2023-04-22T12:45:16.492Z,97993.72
2023-04-22T12:48:23.055Z,97979.44
2023-04-22T12:51:28.508Z,97982.59
2023-04-22T12:54:34.888Z,97965.41
2023-04-22T12:57:40.568Z,97978.09
2023-04-22T13:00:49.810Z,97977.44
2023-04-22T13:03:55.408Z,97973.03
2023-04-22T13:07:02.006Z,97964.59
2023-04-22T13:10:09.557Z,97961.44
2023-04-22T13:13:18.875Z,97961.63
2023-04-22T13:16:27.971Z,97954.56
2023-04-22T13:19:35.539Z,97952.41
2023-04-22T13:22:41.643Z,97953.75
2023-04-22T13:25:48.240Z,97949.59
2023-04-22T13:28:53.734Z,97947.97
2023-04-22T13:32:02.823Z,97940.97
2023-04-22T13:35:09.758Z,97950.34
2023-04-22T13:38:16.383Z,97947.66
2023-04-22T13:41:21.874Z,97941.31
2023-04-22T13:44:28.322Z,97935.47
2023-04-22T13:47:36.823Z,97931.66
2023-04-22T13:50:43.807Z,97942.34
2023-04-22T13:53:49.265Z,97936.69
2023-04-22T13:56:56.468Z,97934.03
2023-04-22T14:00:02.618Z,97938.38
2023-04-22T14:03:20.944Z,97925.38
2023-04-22T14:06:27.351Z,97924.06
2023-04-22T14:09:34.831Z,97929.88
2023-04-22T14:12:40.293Z,97929.41
2023-04-22T14:15:46.652Z,97928.72
2023-04-22T14:18:56.172Z,97920.03
2023-04-22T14:22:02.591Z,97920.25
2023-04-22T14:25:09.591Z,97923.06
2023-04-22T14:28:16.911Z,97918.28
2023-04-22T14:31:24.607Z,97911.44
2023-04-22T14:34:34.086Z,97914.44
2023-04-22T14:37:41.676Z,97917.44
2023-04-22T14:40:48.122Z,97910.44
2023-04-22T14:43:53.781Z,97910.75
2023-04-22T14:47:00.140Z,97914.41
2023-04-22T14:50:10.038Z,97919.75
2023-04-22T14:53:16.651Z,97911.75
2023-04-22T14:56:23.246Z,97905.75
2023-04-22T14:59:29.569Z,97902.09
2023-04-22T15:02:35.719Z,97889.06
2023-04-22T15:05:49.651Z,97902.75
2023-04-22T15:08:56.197Z,97891.56
2023-04-22T15:12:05.225Z,97896.38
2023-04-22T15:15:13.533Z,97888.69
2023-04-22T15:18:20.020Z,97883.00
2023-04-22T15:21:28.395Z,97890.03
2023-04-22T15:24:34.766Z,97896.19
2023-04-22T15:27:41.685Z,97883.97
2023-04-22T15:30:48.942Z,97878.97
2023-04-22T15:33:54.963Z,97879.97
2023-04-22T15:37:04.689Z,97885.06
2023-04-22T15:40:12.186Z,97879.94
2023-04-22T15:43:18.514Z,97887.78
2023-04-22T15:46:25.088Z,97882.66
2023-04-22T15:49:31.579Z,97891.84
2023-04-22T15:52:41.625Z,97877.56
2023-04-22T15:55:48.790Z,97882.50
2023-04-22T15:58:56.060Z,97875.44
2023-04-22T16:02:02.686Z,97876.13
2023-04-22T16:05:09.504Z,97879.97
2023-04-22T16:08:19.292Z,97880.06
2023-04-22T16:11:24.997Z,97879.28
2023-04-22T16:14:31.389Z,97878.19
2023-04-22T16:17:37.353Z,97878.78
2023-04-22T16:20:44.511Z,97875.03
2023-04-22T16:23:52.919Z,97878.72
2023-04-22T16:26:59.610Z,97867.09
2023-04-22T16:30:05.933Z,97867.47
2023-04-22T16:33:12.580Z,97871.59
2023-04-22T16:36:18.261Z,97869.50
2023-04-22T16:39:27.622Z,97867.03
2023-04-22T16:42:33.270Z,97867.88
2023-04-22T16:45:39.564Z,97875.03
2023-04-22T16:48:45.300Z,97872.19
2023-04-22T16:51:52.485Z,97866.59
2023-04-22T16:55:00.921Z,97866.78
2023-04-22T16:58:07.512Z,97857.97
2023-04-22T17:01:13.684Z,97863.97
2023-04-22T17:04:21.549Z,97859.16
2023-04-22T17:07:27.102Z,97862.56
2023-04-22T17:10:41.540Z,97864.22
2023-04-22T17:13:47.039Z,97862.13
2023-04-22T17:16:54.293Z,97857.09
2023-04-22T17:19:59.986Z,97865.97
2023-04-22T17:23:07.530Z,97867.88
2023-04-22T17:26:15.889Z,97868.56
2023-04-22T17:29:23.415Z,97868.44
2023-04-22T17:32:29.263Z,97870.09
2023-04-22T17:35:35.661Z,97867.56
2023-04-22T17:38:41.370Z,97861.38
2023-04-22T17:41:51.109Z,97865.81
2023-04-22T17:44:56.829Z,97861.25
2023-04-22T17:48:03.795Z,97868.66
2023-04-22T17:51:10.425Z,97870.84
2023-04-22T17:54:17.056Z,97885.38
2023-04-22T17:57:25.271Z,97889.09
2023-04-22T18:00:32.522Z,97885.38
2023-04-22T18:03:39.164Z,97881.19
2023-04-22T18:06:45.694Z,97894.31
2023-04-22T18:09:51.609Z,97895.19
2023-04-22T18:13:01.024Z,97894.94
2023-04-22T18:16:06.735Z,97898.00
2023-04-22T18:19:13.253Z,97898.53
2023-04-22T18:22:18.849Z,97899.38
2023-04-22T18:25:26.231Z,97855.81
2023-04-22T18:28:34.550Z,97909.63
2023-04-22T18:31:41.168Z,97906.66
2023-04-22T18:34:46.894Z,97918.81
2023-04-22T18:37:53.258Z,97922.47
2023-04-22T18:40:59.296Z,97922.56
2023-04-22T18:44:09.302Z,97918.41
2023-04-22T18:47:14.775Z,97919.63
2023-04-22T18:50:22.552Z,97922.47
2023-04-22T18:53:28.098Z,97918.34
2023-04-22T18:56:34.681Z,97921.19
2023-04-22T18:59:43.185Z,97926.78
2023-04-22T19:02:49.927Z,97921.81
2023-04-22T19:05:55.817Z,97920.03
2023-04-22T19:09:02.239Z,97919.19
2023-04-22T19:12:14.785Z,97921.88
2023-04-22T19:15:24.389Z,97922.88
2023-04-22T19:18:29.841Z,97924.72
2023-04-22T19:21:36.506Z,97929.19
2023-04-22T19:24:42.443Z,97917.50
2023-04-22T19:27:49.048Z,97925.25
2023-04-22T19:30:59.770Z,97920.50
2023-04-22T19:34:06.234Z,97922.06
2023-04-22T19:37:11.978Z,97922.75
2023-04-22T19:40:19.108Z,97917.16
2023-04-22T19:43:24.595Z,97924.25
2023-04-22T19:46:33.800Z,97917.97
2023-04-22T19:49:41.439Z,97918.66
2023-04-22T19:52:50.257Z,97920.19
2023-04-22T19:55:56.629Z,97912.06
2023-04-22T19:59:04.172Z,97910.94
2023-04-22T20:02:14.517Z,97906.44
2023-04-22T20:05:22.667Z,97901.00
2023-04-22T20:08:31.282Z,97909.47
2023-04-22T20:11:39.790Z,97908.31
2023-04-22T20:14:47.368Z,97910.53
2023-04-22T20:17:57.221Z,97905.75
2023-04-22T20:21:04.166Z,97908.94
2023-04-22T20:24:19.246Z,97910.44
2023-04-22T20:27:25.885Z,97911.81
2023-04-22T20:30:32.796Z,97903.56
2023-04-22T20:33:41.557Z,97905.88
2023-04-22T20:36:49.768Z,97905.59
2023-04-22T20:39:58.032Z,97851.03
2023-04-22T20:43:05.212Z,97908.53
2023-04-22T20:46:11.258Z,97898.78
2023-04-22T20:49:20.437Z,97905.22
2023-04-22T20:52:26.207Z,97906.47
2023-04-22T20:55:34.983Z,97896.41
2023-04-22T20:58:41.793Z,97901.22
2023-04-22T21:01:51.031Z,97898.84
2023-04-22T21:05:02.508Z,97897.44
2023-04-22T21:08:24.568Z,97896.25
2023-04-22T21:11:31.341Z,97892.34
2023-04-22T21:14:39.291Z,97888.41
2023-04-22T21:17:56.867Z,97886.72
2023-04-22T21:21:07.579Z,97876.91
2023-04-22T21:24:14.544Z,97894.16
2023-04-22T21:27:23.562Z,97886.50
2023-04-22T21:30:29.980Z,97898.03
2023-04-22T21:33:36.580Z,97894.94
2023-04-22T21:36:44.889Z,97893.03
2023-04-22T21:39:51.603Z,97895.44
2023-04-22T21:42:57.316Z,97900.97
2023-04-22T21:46:03.963Z,97903.97
2023-04-22T21:49:09.714Z,97905.31
2023-04-22T21:52:19.419Z,97911.06
2023-04-22T21:55:25.197Z,97902.94
2023-04-22T21:58:31.616Z,97905.09
2023-04-22T22:01:37.169Z,97901.97
2023-04-22T22:04:43.813Z,97904.13
2023-04-22T22:07:53.223Z,97904.66
2023-04-22T22:10:59.804Z,97910.41
2023-04-22T22:14:05.361Z,97902.84
2023-04-22T22:17:12.801Z,97898.91
2023-04-22T22:20:20.726Z,97902.00
2023-04-22T22:23:30.058Z,97893.75
2023-04-22T22:26:36.746Z,97899.38
2023-04-22T22:29:43.305Z,97897.22
2023-04-22T22:32:49.123Z,97891.72
2023-04-22T22:35:56.222Z,97900.81
2023-04-22T22:39:04.795Z,97900.31
2023-04-22T22:42:11.877Z,97897.22
2023-04-22T22:45:17.478Z,97897.69
2023-04-22T22:48:24.354Z,97899.84
2023-04-22T22:51:32.922Z,97896.47
2023-04-22T22:54:43.777Z,97895.88
2023-04-22T22:57:49.877Z,97894.56
2023-04-22T23:00:56.641Z,97901.00
2023-04-22T23:04:02.812Z,97900.41
2023-04-22T23:07:09.327Z,97904.31
2023-04-22T23:10:17.658Z,97902.84
2023-04-22T23:13:24.397Z,97911.00
2023-04-22T23:16:30.137Z,97905.13
2023-04-22T23:19:38.059Z,97891.22
2023-04-22T23:22:45.958Z,97895.88
2023-04-22T23:25:55.871Z,97897.19
2023-04-22T23:29:02.297Z,97901.84
2023-04-22T23:32:12.434Z,97899.31
2023-04-22T23:35:18.633Z,97895.13
2023-04-22T23:38:25.121Z,97900.38
2023-04-22T23:41:33.632Z,97906.50
2023-04-22T23:44:40.580Z,97904.47
2023-04-22T23:47:46.398Z,97904.34
2023-04-22T23:50:52.803Z,97906.06
2023-04-22T23:53:58.314Z,97896.69
2023-04-22T23:57:08.440Z,97905.19
